createdAt,value
2018-10-05T00:01:10.890Z,16.80
2018-10-05T00:03:39.351Z,17.70
2018-10-05T00:06:08.051Z,18.00
2018-10-05T00:08:36.585Z,18.77
2018-10-05T00:11:05.038Z,17.13
2018-10-05T00:13:33.528Z,17.30
2018-10-05T00:16:02.057Z,17.73
2018-10-05T00:18:30.619Z,17.77
2018-10-05T00:20:59.061Z,18.63
2018-10-05T00:23:27.504Z,18.17
2018-10-05T00:25:56.020Z,19.20
2018-10-05T00:28:24.446Z,18.43
2018-10-05T00:30:52.881Z,19.43
2018-10-05T00:33:21.353Z,20.03
2018-10-05T00:35:49.873Z,21.50
2018-10-05T00:38:18.405Z,20.53
2018-10-05T00:40:46.858Z,20.20
2018-10-05T00:43:15.331Z,20.27
2018-10-05T00:45:43.784Z,20.00
2018-10-05T00:48:12.213Z,20.00
2018-10-05T00:50:40.680Z,18.80
2018-10-05T00:53:09.148Z,19.73
2018-10-05T00:55:37.587Z,18.83
2018-10-05T00:58:06.435Z,18.80
2018-10-05T01:00:34.944Z,17.67
2018-10-05T01:03:03.398Z,18.23
2018-10-05T01:05:31.883Z,18.47
2018-10-05T01:08:00.689Z,19.93
2018-10-05T01:10:29.130Z,17.93
2018-10-05T01:12:57.629Z,17.80
2018-10-05T01:15:26.084Z,18.23
2018-10-05T01:17:54.521Z,17.13
2018-10-05T01:20:22.976Z,18.60
2018-10-05T01:22:51.477Z,18.47
2018-10-05T01:25:19.893Z,18.33
2018-10-05T01:27:48.338Z,20.83
2018-10-05T01:30:16.765Z,18.87
2018-10-05T01:32:45.240Z,18.50
2018-10-05T01:35:14.206Z,21.73
2018-10-05T01:37:42.615Z,18.37
2018-10-05T01:40:11.469Z,18.87
2018-10-05T01:42:40.030Z,19.03
2018-10-05T01:45:08.511Z,21.07
2018-10-05T01:47:36.944Z,18.20
2018-10-05T01:50:05.480Z,19.50
2018-10-05T01:52:33.921Z,19.37
2018-10-05T01:55:02.380Z,19.33
2018-10-05T01:57:30.861Z,19.57
2018-10-05T01:59:59.395Z,20.47
2018-10-05T02:02:27.880Z,21.70
2018-10-05T02:04:56.328Z,21.17
2018-10-05T02:07:24.770Z,19.47
2018-10-05T02:09:53.212Z,18.53
2018-10-05T02:12:21.672Z,21.40
2018-10-05T02:14:50.120Z,19.67
2018-10-05T02:17:18.587Z,18.80
2018-10-05T02:19:47.186Z,17.93
2018-10-05T02:22:15.694Z,19.00
2018-10-05T02:24:44.170Z,18.57
2018-10-05T02:27:12.626Z,19.23
2018-10-05T02:29:41.142Z,18.00
2018-10-05T02:32:09.604Z,17.73
2018-10-05T02:34:38.054Z,18.33
2018-10-05T02:37:06.554Z,18.73
2018-10-05T02:39:34.997Z,17.30
2018-10-05T02:42:03.466Z,18.30
2018-10-05T02:44:31.892Z,18.53
2018-10-05T02:47:00.407Z,18.20
2018-10-05T02:49:28.840Z,19.87
2018-10-05T02:51:57.269Z,18.23
2018-10-05T02:54:25.729Z,19.50
2018-10-05T02:56:54.191Z,19.33
2018-10-05T02:59:22.637Z,17.83
2018-10-05T03:02:02.460Z,18.27
2018-10-05T03:04:30.999Z,17.57
2018-10-05T03:06:59.435Z,16.83
2018-10-05T03:09:27.915Z,19.87
2018-10-05T03:11:56.459Z,17.57
2018-10-05T03:14:24.951Z,17.13
2018-10-05T03:16:53.414Z,17.50
2018-10-05T03:19:21.858Z,16.70
2018-10-05T03:21:50.313Z,17.97
2018-10-05T03:24:18.803Z,16.93
2018-10-05T03:26:47.235Z,17.47
2018-10-05T03:29:15.711Z,16.63
2018-10-05T03:31:44.171Z,17.73
2018-10-05T03:34:12.625Z,18.27
2018-10-05T03:36:41.105Z,15.73
2018-10-05T03:39:09.565Z,16.63
2018-10-05T03:41:38.027Z,16.03
2018-10-05T03:44:06.508Z,20.50
2018-10-05T03:46:34.977Z,18.87
2018-10-05T03:49:03.600Z,15.30
2018-10-05T03:51:32.031Z,14.67
2018-10-05T03:54:01.609Z,14.63
2018-10-05T03:56:30.055Z,14.40
2018-10-05T03:58:58.506Z,13.23
2018-10-05T04:01:26.956Z,14.43
2018-10-05T04:03:55.418Z,15.57
2018-10-05T04:06:23.996Z,16.00
2018-10-05T04:08:52.447Z,15.53
2018-10-05T04:11:20.916Z,12.63
2018-10-05T04:13:49.552Z,12.40
2018-10-05T04:16:18.041Z,13.70
2018-10-05T04:18:46.536Z,13.33
2018-10-05T04:21:14.989Z,14.97
2018-10-05T04:23:43.474Z,13.73
2018-10-05T04:26:11.902Z,13.73
2018-10-05T04:28:40.350Z,14.17
2018-10-05T04:31:08.877Z,13.20
2018-10-05T04:33:37.304Z,14.40
2018-10-05T04:36:05.747Z,15.67
2018-10-05T04:38:34.194Z,12.90
2018-10-05T04:41:02.661Z,14.33
2018-10-05T04:43:31.138Z,11.97
2018-10-05T04:45:59.578Z,12.77
2018-10-05T04:48:28.056Z,13.67
2018-10-05T04:50:56.498Z,11.67
2018-10-05T04:53:24.986Z,12.87
2018-10-05T04:55:53.645Z,11.97
2018-10-05T04:58:22.084Z,13.33
2018-10-05T05:00:50.652Z,11.47
2018-10-05T05:03:19.174Z,15.93
2018-10-05T05:05:47.590Z,16.43
2018-10-05T05:08:16.048Z,13.80
2018-10-05T05:10:44.528Z,13.63
2018-10-05T05:13:13.768Z,14.33
2018-10-05T05:15:42.438Z,13.37
2018-10-05T05:18:10.888Z,15.43
2018-10-05T05:20:39.354Z,15.67
2018-10-05T05:23:07.936Z,13.80
2018-10-05T05:25:36.396Z,15.03
2018-10-05T05:28:04.932Z,15.27
2018-10-05T05:30:33.432Z,13.60
2018-10-05T05:33:01.860Z,15.97
2018-10-05T05:35:30.359Z,16.07
2018-10-05T05:37:58.804Z,18.50
2018-10-05T05:40:27.362Z,13.80
2018-10-05T05:43:02.517Z,15.03
2018-10-05T05:45:31.009Z,14.50
2018-10-05T05:47:59.462Z,14.07
2018-10-05T05:50:27.940Z,12.33
2018-10-05T05:52:56.443Z,13.40
2018-10-05T05:55:24.910Z,14.03
2018-10-05T05:57:53.396Z,11.97
2018-10-05T06:00:21.866Z,11.50
2018-10-05T06:02:50.364Z,13.03
2018-10-05T06:05:18.824Z,12.73
2018-10-05T06:07:54.712Z,16.13
2018-10-05T06:10:23.303Z,15.13
2018-10-05T06:12:51.796Z,12.47
2018-10-05T06:15:20.305Z,12.17
2018-10-05T06:17:48.731Z,13.73
2018-10-05T06:20:17.293Z,13.20
2018-10-05T06:22:45.750Z,12.80
2018-10-05T06:25:14.207Z,11.63
2018-10-05T06:27:42.650Z,12.30
2018-10-05T06:30:11.136Z,13.67
2018-10-05T06:32:39.718Z,9.97
2018-10-05T06:35:08.226Z,13.37
2018-10-05T06:37:36.736Z,12.27
2018-10-05T06:40:05.359Z,12.03
2018-10-05T06:42:33.919Z,11.47
2018-10-05T06:45:02.351Z,12.27
2018-10-05T06:47:30.817Z,16.20
2018-10-05T06:49:59.262Z,11.33
2018-10-05T06:52:27.757Z,11.90
2018-10-05T06:54:56.229Z,12.80
2018-10-05T06:57:31.371Z,10.53
2018-10-05T06:59:59.843Z,13.90
2018-10-05T07:02:28.415Z,12.77
2018-10-05T07:04:56.891Z,12.33
2018-10-05T07:07:25.384Z,11.77
2018-10-05T07:09:53.841Z,10.63
2018-10-05T07:12:22.395Z,13.83
2018-10-05T07:14:50.901Z,12.80
2018-10-05T07:17:19.479Z,15.10
2018-10-05T07:19:47.929Z,13.77
2018-10-05T07:22:16.589Z,13.00
2018-10-05T07:24:45.070Z,12.30
2018-10-05T07:27:13.540Z,11.23
2018-10-05T07:29:42.019Z,12.83
2018-10-05T07:32:11.343Z,15.47
2018-10-05T07:34:39.847Z,15.23
2018-10-05T07:37:08.390Z,14.03
2018-10-05T07:39:36.886Z,11.73
2018-10-05T07:42:05.346Z,13.73
2018-10-05T07:44:33.861Z,11.37
2018-10-05T07:47:02.360Z,13.80
2018-10-05T07:49:30.892Z,13.40
2018-10-05T07:51:59.369Z,11.70
2018-10-05T07:54:27.948Z,12.80
2018-10-05T07:56:56.442Z,11.03
2018-10-05T07:59:24.899Z,13.93
2018-10-05T08:01:53.345Z,13.40
2018-10-05T08:04:21.828Z,12.40
2018-10-05T08:06:50.368Z,13.30
2018-10-05T08:09:18.891Z,10.43
2018-10-05T08:11:47.548Z,10.73
2018-10-05T08:14:16.040Z,11.13
2018-10-05T08:16:44.544Z,12.57
2018-10-05T08:19:13.025Z,14.53
2018-10-05T08:21:41.705Z,12.77
2018-10-05T08:24:10.143Z,12.30
2018-10-05T08:26:38.622Z,12.03
2018-10-05T08:29:07.234Z,13.43
2018-10-05T08:31:36.273Z,11.40
2018-10-05T08:34:04.868Z,10.33
2018-10-05T08:36:33.418Z,11.93
2018-10-05T08:39:01.872Z,13.10
2018-10-05T08:41:30.410Z,8.80
2018-10-05T08:43:58.960Z,11.47
2018-10-05T08:46:27.412Z,11.23
2018-10-05T08:48:55.869Z,13.27
2018-10-05T08:51:24.333Z,11.83
2018-10-05T08:53:52.913Z,15.83
2018-10-05T08:56:21.398Z,13.60
2018-10-05T08:58:49.847Z,15.73
2018-10-05T09:01:18.300Z,14.13
2018-10-05T09:03:46.900Z,12.00
2018-10-05T09:06:15.424Z,13.90
2018-10-05T09:08:43.913Z,11.73
2018-10-05T09:11:12.493Z,16.83
2018-10-05T09:13:41.003Z,14.73
2018-10-05T09:16:09.431Z,11.50
2018-10-05T09:18:37.972Z,12.07
2018-10-05T09:21:06.580Z,11.27
2018-10-05T09:23:35.237Z,10.43
2018-10-05T09:26:03.851Z,13.03
2018-10-05T09:28:32.528Z,9.37
2018-10-05T09:31:00.975Z,9.87
2018-10-05T09:33:29.425Z,7.13
2018-10-05T09:35:57.959Z,9.90
2018-10-05T09:38:26.538Z,11.37
2018-10-05T09:40:54.961Z,13.07
2018-10-05T09:43:23.525Z,11.23
2018-10-05T09:45:52.109Z,12.30
2018-10-05T09:48:20.621Z,8.83
2018-10-05T09:50:49.840Z,9.70
2018-10-05T09:53:18.349Z,11.17
2018-10-05T09:55:46.816Z,11.93
2018-10-05T09:58:15.553Z,10.97
2018-10-05T10:00:49.688Z,10.73
2018-10-05T10:03:23.688Z,13.03
2018-10-05T10:05:52.211Z,11.50
2018-10-05T10:08:20.725Z,11.67
2018-10-05T10:10:49.129Z,10.40
2018-10-05T10:13:17.859Z,10.13
2018-10-05T10:15:46.368Z,10.83
2018-10-05T10:18:14.839Z,14.07
2018-10-05T10:20:44.229Z,9.80
2018-10-05T10:23:12.814Z,9.13
2018-10-05T10:25:41.283Z,11.57
2018-10-05T10:28:10.171Z,7.57
2018-10-05T10:30:38.586Z,10.03
2018-10-05T10:33:07.389Z,11.47
2018-10-05T10:35:35.914Z,8.33
2018-10-05T10:38:05.183Z,11.73
2018-10-05T10:40:33.646Z,13.17
2018-10-05T10:43:02.123Z,10.97
2018-10-05T10:45:30.601Z,10.77
2018-10-05T10:47:59.133Z,9.20
2018-10-05T10:50:27.699Z,9.90
2018-10-05T10:52:56.207Z,10.70
2018-10-05T10:55:24.698Z,11.20
2018-10-05T10:57:53.146Z,8.13
2018-10-05T11:00:21.595Z,9.63
2018-10-05T11:02:50.189Z,7.20
2018-10-05T11:05:18.690Z,11.37
2018-10-05T11:07:47.167Z,9.80
2018-10-05T11:10:15.702Z,12.60
2018-10-05T11:12:44.167Z,7.90
2018-10-05T11:15:12.723Z,10.20
2018-10-05T11:17:41.185Z,8.73
2018-10-05T11:20:09.651Z,10.93
2018-10-05T11:22:38.675Z,10.43
2018-10-05T11:25:07.261Z,7.93
2018-10-05T11:27:35.749Z,9.93
2018-10-05T11:30:04.384Z,6.50
2018-10-05T11:32:32.824Z,7.90
2018-10-05T11:35:01.361Z,9.23
2018-10-05T11:37:29.764Z,7.13
2018-10-05T11:39:58.262Z,7.43
2018-10-05T11:42:26.702Z,7.23
2018-10-05T11:44:55.139Z,6.03
2018-10-05T11:47:23.964Z,6.93
2018-10-05T11:49:52.460Z,6.17
2018-10-05T11:52:20.965Z,5.60
2018-10-05T11:54:49.455Z,4.33
2018-10-05T11:57:18.021Z,9.83
2018-10-05T11:59:46.502Z,4.40
2018-10-05T12:02:14.961Z,7.67
2018-10-05T12:04:43.483Z,8.60
2018-10-05T12:07:11.988Z,9.20
2018-10-05T12:09:40.437Z,5.57
2018-10-05T12:12:09.231Z,5.37
2018-10-05T12:14:38.026Z,9.40
2018-10-05T12:17:06.588Z,7.97
2018-10-05T12:19:35.129Z,4.07
2018-10-05T12:22:03.689Z,7.20
2018-10-05T12:24:32.367Z,9.43
2018-10-05T12:27:00.953Z,6.77
2018-10-05T12:29:29.424Z,11.13
2018-10-05T12:31:57.893Z,6.80
2018-10-05T12:34:26.408Z,5.20
2018-10-05T12:36:54.861Z,5.27
2018-10-05T12:39:23.316Z,5.77
2018-10-05T12:41:51.785Z,7.50
2018-10-05T12:44:20.282Z,6.43
2018-10-05T12:46:48.878Z,5.47
2018-10-05T12:49:17.304Z,6.30
2018-10-05T12:51:45.808Z,8.07
2018-10-05T12:54:14.372Z,8.07
2018-10-05T12:56:42.826Z,7.20
2018-10-05T12:59:11.276Z,6.63
2018-10-05T13:01:39.752Z,6.37
2018-10-05T13:04:08.236Z,5.30
2018-10-05T13:06:36.805Z,8.83
2018-10-05T13:09:07.424Z,5.33
2018-10-05T13:11:36.466Z,5.20
2018-10-05T13:14:05.571Z,6.73
2018-10-05T13:16:34.078Z,7.20
2018-10-05T13:19:03.039Z,6.60
2018-10-05T13:21:42.215Z,5.63
2018-10-05T13:24:10.707Z,6.03
2018-10-05T13:26:39.217Z,4.70
2018-10-05T13:29:07.745Z,3.60
2018-10-05T13:31:36.215Z,6.30
2018-10-05T13:34:04.796Z,6.30
2018-10-05T13:36:33.395Z,6.77
2018-10-05T13:39:01.827Z,3.27
2018-10-05T13:41:30.310Z,5.43
2018-10-05T13:43:58.791Z,4.47
2018-10-05T13:46:27.318Z,4.47
2018-10-05T13:48:55.763Z,3.97
2018-10-05T13:51:24.279Z,4.47
2018-10-05T13:53:52.781Z,3.83
2018-10-05T13:56:21.233Z,5.40
2018-10-05T13:58:49.777Z,4.90
2018-10-05T14:01:18.626Z,5.17
2018-10-05T14:03:47.120Z,7.00
2018-10-05T14:06:15.931Z,4.63
2018-10-05T14:08:44.451Z,3.53
2018-10-05T14:11:12.935Z,5.70
2018-10-05T14:13:41.979Z,4.10
2018-10-05T14:16:10.435Z,6.97
2018-10-05T14:18:38.998Z,4.13
2018-10-05T14:21:08.220Z,5.23
2018-10-05T14:23:36.655Z,5.30
2018-10-05T14:26:05.265Z,6.47
2018-10-05T14:28:33.735Z,5.17
2018-10-05T14:31:02.227Z,5.37
2018-10-05T14:33:30.695Z,3.80
2018-10-05T14:35:59.313Z,4.87
2018-10-05T14:38:27.784Z,13.47
2018-10-05T14:40:56.331Z,4.30
2018-10-05T14:43:24.777Z,4.47
2018-10-05T14:45:53.291Z,6.70
2018-10-05T14:48:21.831Z,5.37
2018-10-05T14:50:50.299Z,5.97
2018-10-05T14:53:18.816Z,4.40
2018-10-05T14:55:47.402Z,6.30
2018-10-05T14:58:15.890Z,5.13
2018-10-05T15:00:44.354Z,5.43
2018-10-05T15:03:12.904Z,6.03
2018-10-05T15:05:41.376Z,4.00
2018-10-05T15:08:09.845Z,6.10
2018-10-05T15:10:38.351Z,6.37
2018-10-05T15:13:06.848Z,7.93
2018-10-05T15:15:35.428Z,4.23
2018-10-05T15:18:03.926Z,4.47
2018-10-05T15:20:32.388Z,6.20
2018-10-05T15:23:00.884Z,6.67
2018-10-05T15:25:29.365Z,7.13
2018-10-05T15:27:57.880Z,6.83
2018-10-05T15:30:26.362Z,8.13
2018-10-05T15:32:54.876Z,7.83
2018-10-05T15:35:23.332Z,6.00
2018-10-05T15:37:51.778Z,5.63
2018-10-05T15:40:20.266Z,5.30
2018-10-05T15:42:48.807Z,7.80
2018-10-05T15:45:17.339Z,6.47
2018-10-05T15:47:45.800Z,6.17
2018-10-05T15:50:14.346Z,4.33
2018-10-05T15:52:42.825Z,4.63
2018-10-05T15:55:11.312Z,4.50
2018-10-05T15:57:39.826Z,5.27
2018-10-05T16:00:08.407Z,6.97
2018-10-05T16:02:36.866Z,5.93
2018-10-05T16:05:05.397Z,7.10
2018-10-05T16:07:33.853Z,5.57
2018-10-05T16:10:02.362Z,5.13
2018-10-05T16:12:30.909Z,6.03
2018-10-05T16:14:59.335Z,5.77
2018-10-05T16:17:27.793Z,5.77
2018-10-05T16:19:56.406Z,5.27
2018-10-05T16:22:24.892Z,8.50
2018-10-05T16:24:53.459Z,6.60
2018-10-05T16:27:21.831Z,7.47
2018-10-05T16:29:50.268Z,5.50
2018-10-05T16:32:18.725Z,5.07
2018-10-05T16:34:47.284Z,7.77
2018-10-05T16:37:15.739Z,5.23
2018-10-05T16:39:44.211Z,7.57
2018-10-05T16:42:12.757Z,8.33
2018-10-05T16:44:41.192Z,4.63
2018-10-05T16:47:09.674Z,5.00
2018-10-05T16:49:38.221Z,6.10
2018-10-05T16:52:06.730Z,4.50
2018-10-05T16:54:35.776Z,5.80
2018-10-05T16:57:04.230Z,8.00
2018-10-05T16:59:32.684Z,6.03
2018-10-05T17:02:03.960Z,5.73
2018-10-05T17:04:32.408Z,6.67
2018-10-05T17:07:00.879Z,6.27
2018-10-05T17:09:29.379Z,8.60
2018-10-05T17:11:57.835Z,8.37
2018-10-05T17:14:27.729Z,8.13
2018-10-05T17:16:56.215Z,10.73
2018-10-05T17:19:24.668Z,8.77
2018-10-05T17:21:53.124Z,12.87
2018-10-05T17:24:21.571Z,12.03
2018-10-05T17:26:50.151Z,10.70
2018-10-05T17:29:18.623Z,11.30
2018-10-05T17:31:47.130Z,8.23
2018-10-05T17:34:16.066Z,7.00
2018-10-05T17:36:44.596Z,8.47
2018-10-05T17:39:13.054Z,9.13
2018-10-05T17:41:41.602Z,7.20
2018-10-05T17:44:10.047Z,8.40
2018-10-05T17:46:38.514Z,6.03
2018-10-05T17:49:07.241Z,7.13
2018-10-05T17:51:35.808Z,11.43
2018-10-05T17:54:04.266Z,6.83
2018-10-05T17:56:32.731Z,10.83
2018-10-05T17:59:01.177Z,6.47
2018-10-05T18:01:29.732Z,11.13
2018-10-05T18:03:58.190Z,6.80
2018-10-05T18:06:26.721Z,9.30
2018-10-05T18:08:55.236Z,8.57
2018-10-05T18:11:23.702Z,6.43
2018-10-05T18:13:52.204Z,7.50
2018-10-05T18:16:20.653Z,7.40
2018-10-05T18:18:49.113Z,5.70
2018-10-05T18:21:17.540Z,7.27
2018-10-05T18:23:46.072Z,6.07
2018-10-05T18:26:14.542Z,8.90
2018-10-05T18:28:43.027Z,9.87
2018-10-05T18:31:11.523Z,8.20
2018-10-05T18:33:40.014Z,6.23
2018-10-05T18:36:08.445Z,7.37
2018-10-05T18:38:36.864Z,6.50
2018-10-05T18:41:05.337Z,4.90
2018-10-05T18:43:33.789Z,10.10
2018-10-05T18:46:02.217Z,7.43
2018-10-05T18:48:30.729Z,7.50
2018-10-05T18:50:59.193Z,9.70
2018-10-05T18:53:27.618Z,7.37
2018-10-05T18:57:06.855Z,8.27
2018-10-05T18:59:35.341Z,8.33
2018-10-05T19:02:03.797Z,8.63
2018-10-05T19:04:32.307Z,12.27
2018-10-05T19:07:01.214Z,8.27
2018-10-05T19:09:29.636Z,7.40
2018-10-05T19:11:58.110Z,8.70
2018-10-05T19:14:27.130Z,8.10
2018-10-05T19:16:55.590Z,8.37
2018-10-05T19:19:24.050Z,6.57
2018-10-05T19:21:52.594Z,7.77
2018-10-05T19:24:21.050Z,8.07
2018-10-05T19:26:49.547Z,9.87
2018-10-05T19:29:18.014Z,12.43
2018-10-05T19:31:46.472Z,11.13
2018-10-05T19:34:15.080Z,9.20
2018-10-05T19:36:43.549Z,11.73
2018-10-05T19:39:12.475Z,14.70
2018-10-05T19:41:41.464Z,8.53
2018-10-05T19:44:10.551Z,9.00
2018-10-05T19:46:39.209Z,8.57
2018-10-05T19:49:07.707Z,11.30
2018-10-05T19:51:36.165Z,9.93
2018-10-05T19:54:04.634Z,8.10
2018-10-05T19:56:33.084Z,9.27
2018-10-05T19:59:01.517Z,11.97
2018-10-05T20:01:29.975Z,11.73
2018-10-05T20:03:58.490Z,11.33
2018-10-05T20:06:26.945Z,9.53
2018-10-05T20:08:55.479Z,10.93
2018-10-05T20:11:23.983Z,11.20
2018-10-05T20:13:52.423Z,9.67
2018-10-05T20:16:20.868Z,11.33
2018-10-05T20:18:49.356Z,10.43
2018-10-05T20:21:17.948Z,15.30
2018-10-05T20:23:46.448Z,21.90
2018-10-05T20:26:14.914Z,43.67
2018-10-05T20:28:43.444Z,20.50
2018-10-05T20:31:11.917Z,12.80
2018-10-05T20:33:40.391Z,14.07
2018-10-05T20:36:09.030Z,10.30
2018-10-05T20:38:37.311Z,11.80
2018-10-05T20:41:05.786Z,15.93
2018-10-05T20:43:34.220Z,12.67
2018-10-05T20:46:02.867Z,10.50
2018-10-05T20:48:32.295Z,10.93
2018-10-05T20:51:00.722Z,11.17
2018-10-05T20:53:29.275Z,14.00
2018-10-05T20:55:58.277Z,11.23
2018-10-05T20:58:26.802Z,11.33
2018-10-05T21:00:55.241Z,11.67
2018-10-05T21:03:23.718Z,11.03
2018-10-05T21:05:52.173Z,13.50
2018-10-05T21:08:20.643Z,12.00
2018-10-05T21:10:49.141Z,10.67
2018-10-05T21:13:17.597Z,11.93
2018-10-05T21:15:46.090Z,13.43
2018-10-05T21:18:14.559Z,12.97
2018-10-05T21:20:43.021Z,11.80
2018-10-05T21:23:11.440Z,10.77
2018-10-05T21:25:39.916Z,10.23
2018-10-05T21:28:08.504Z,12.87
2018-10-05T21:30:36.909Z,11.27
2018-10-05T21:33:05.449Z,10.83
2018-10-05T21:35:33.845Z,11.43
2018-10-05T21:38:02.339Z,9.40
2018-10-05T21:40:30.840Z,8.43
2018-10-05T21:43:00.102Z,8.57
2018-10-05T21:45:28.624Z,9.93
2018-10-05T21:47:57.146Z,9.60
2018-10-05T21:50:25.679Z,8.20
2018-10-05T21:52:54.177Z,12.93
2018-10-05T21:55:22.613Z,8.20
2018-10-05T21:57:51.067Z,9.47
2018-10-05T22:00:19.534Z,10.30
2018-10-05T22:02:48.010Z,9.80
2018-10-05T22:05:16.473Z,10.90
2018-10-05T22:07:44.905Z,10.33
2018-10-05T22:10:13.443Z,10.00
2018-10-05T22:12:41.893Z,9.40
2018-10-05T22:15:10.361Z,9.50
2018-10-05T22:17:38.861Z,10.10
2018-10-05T22:20:07.508Z,11.37
2018-10-05T22:22:35.913Z,10.63
2018-10-05T22:25:04.643Z,10.53
2018-10-05T22:27:33.089Z,9.43
2018-10-05T22:30:04.645Z,10.40
2018-10-05T22:32:33.260Z,10.27
2018-10-05T22:35:01.838Z,10.00
2018-10-05T22:37:30.298Z,10.00
2018-10-05T22:39:58.787Z,10.57
2018-10-05T22:42:27.238Z,10.90
2018-10-05T22:44:55.656Z,11.53
2018-10-05T22:47:24.863Z,11.70
2018-10-05T22:49:53.350Z,10.67
2018-10-05T22:52:22.050Z,11.27
2018-10-05T22:54:50.612Z,11.20
2018-10-05T22:57:19.165Z,11.80
2018-10-05T22:59:47.639Z,11.63
2018-10-05T23:02:16.062Z,14.10
2018-10-05T23:04:44.552Z,11.83
2018-10-05T23:07:13.198Z,13.07
2018-10-05T23:09:41.670Z,12.87
2018-10-05T23:12:10.169Z,13.87
2018-10-05T23:14:38.675Z,12.67
2018-10-05T23:17:07.152Z,12.87
2018-10-05T23:19:35.618Z,13.87
2018-10-05T23:22:04.230Z,15.90
2018-10-05T23:24:32.816Z,14.73
2018-10-05T23:27:01.617Z,14.37
2018-10-05T23:29:30.078Z,14.23
2018-10-05T23:31:58.567Z,16.17
2018-10-05T23:34:27.015Z,14.10
2018-10-05T23:36:55.446Z,13.50
2018-10-05T23:39:23.891Z,13.30
2018-10-05T23:41:52.359Z,12.90
2018-10-05T23:44:20.798Z,14.63
2018-10-05T23:46:49.237Z,13.37
2018-10-05T23:49:17.783Z,13.57
2018-10-05T23:51:46.265Z,13.40
2018-10-05T23:54:14.801Z,17.30
2018-10-05T23:56:43.269Z,16.50
2018-10-05T23:59:11.694Z,16.47
